Airfield :
LOGIN :

Register | Disclaimer

   EN    FR    IT 

 










Legend :    VFR   Marginal VFR   IFR   Intensive IFR   Very Intensive IFR
Visi :
Ceiling :
>= 8 km
>= 3000ft
5 to 8 km
1000 to 3000 ft
1500m to 5 km
500 to 1000 ft
800 to 1500m
200 to 500 ft
< 800m
< 200 ft
Symbols :   Thunderstorms  Fog  Heavy snow  Heavy precipitations  Wind > 20 kt
SIGMETs :     Misc.  Thunderstorms  Icing  Turbulence  Mountain Waves  Volcanic Ashes






- Airport Elevation : 364 ft
- IATA code : FRA


EDDF - Frankfurt Int.

CURRENT METAR :
  • 020550Z AUTO VRB01KT CAVOK 02/01 Q1004 NOSIG

EXPIRED METARs :
  • 020520Z AUTO VRB02KT CAVOK 02/01 Q1004 NOSIG
  • 020450Z AUTO VRB02KT CAVOK 03/02 Q1004 NOSIG
  • 020420Z AUTO 06004KT 040V110 CAVOK 02/01 Q1004 NOSIG
  • 012050Z AUTO 07005KT CAVOK 05/02 Q1005 NOSIG
  • 020350Z AUTO 04003KT CAVOK 02/02 Q1004 NOSIG
  • 020320Z AUTO 08003KT CAVOK 02/01 Q1004 NOSIG
  • 020250Z AUTO 06003KT CAVOK 02/02 Q1004 NOSIG
  • 020220Z AUTO 07006KT CAVOK 02/01 Q1004 NOSIG
  • 020150Z AUTO 08004KT CAVOK 02/02 Q1004 NOSIG
  • 020120Z AUTO VRB01KT CAVOK 02/02 Q1005 NOSIG

TAF TAF EDDF
Valid from the 02 at 06:00 until the 03 at 12:00 UTC


020500Z 0206/0312 06003KT CAVOK
TEMPO 0206/0215 BKN025
BECMG 0208/0212 18005KT
BECMG 0213/0217 08005KT



MET'MAP, your aeronautical weather chart ! - Copyright ORBIFLY December 2007 - Disclaimer

ORBIFLY MET'MAP TEAM :

Programming & Development : Alexandra Zaïnal
Original concept : Baudouin d'Aumeries
Technical & hardware support : Manuel Goepfert
Assistance : Marc-Olivier Méhu




SOURCES & CREDITS :

   NOAA